Time;durP1;ratioP1;P1;durP2;ratioP2;P2;SDS_P1;SDS_P2;PMS_P1;PMS_P2;Temp;Humidity;BMP_temperature;BMP_pressure;BME280_temperature;BME280_humidity;BME280_pressure;Samples;Min_cycle;Max_cycle;Signal;HPM_P1;HPM_P2
2020/12/14 05:35:30;;;;;;;20.97;8.80;;;3.90;99.90;;;;;;4965253;28;20250;-84
2020/12/14 05:38:10;;;;;;;20.80;10.03;;;3.90;99.90;;;;;;4966812;28;20252;-84
2020/12/14 05:40:42;;;;;;;19.33;9.50;;;4.00;99.90;;;;;;4965974;28;20226;-85
2020/12/14 05:43:10;;;;;;;22.53;9.43;;;3.90;99.90;;;;;;4966658;28;20233;-85
2020/12/14 05:49:21;;;;;;;20.50;9.37;;;4.00;99.90;;;;;;4914006;29;20191;-84
2020/12/14 05:58:32;;;;;;;21.80;9.63;;;4.00;99.90;;;;;;4879375;29;20201;-85
2020/12/14 06:03:42;;;;;;;18.27;9.10;;;3.90;99.90;;;;;;4967042;28;20238;-84
2020/12/14 06:09:04;;;;;;;20.77;10.10;;;4.00;99.90;;;;;;4969502;28;20583;-84
2020/12/14 06:11:37;;;;;;;21.07;9.90;;;4.10;99.90;;;;;;4975572;28;20840;-84
2020/12/14 06:14:19;;;;;;;20.87;10.00;;;4.30;99.90;;;;;;4970704;28;20233;-85
2020/12/14 06:16:47;;;;;;;26.37;9.83;;;4.30;99.90;;;;;;4961192;28;20296;-84
2020/12/14 06:19:14;;;;;;;16.57;8.90;;;4.30;99.90;;;;;;4964042;28;20616;-86
2020/12/14 06:35:15;;;;;;;16.83;7.93;;;4.50;99.90;;;;;;4969192;28;20279;-85
2020/12/14 06:38:32;;;;;;;17.70;8.00;;;4.50;99.90;;;;;;4970134;28;20224;-83
2020/12/14 06:41:39;;;;;;;17.50;7.93;;;4.50;99.90;;;;;;4970430;28;20217;-83
2020/12/14 06:51:24;;;;;;;16.67;6.87;;;4.60;99.90;;;;;;4933515;29;20239;-83
2020/12/14 06:56:46;;;;;;;15.40;6.63;;;4.70;99.90;;;;;;4927435;29;20588;-82
2020/12/14 06:59:29;;;;;;;17.57;6.13;;;4.80;99.90;;;;;;4950817;28;21671;-82
2020/12/14 07:01:59;;;;;;;14.90;7.20;;;4.80;99.90;;;;;;4968410;28;20241;-82
2020/12/14 07:04:40;;;;;;;13.33;6.17;;;4.80;99.90;;;;;;4970414;28;20911;-81
2020/12/14 07:07:29;;;;;;;22.10;7.60;;;4.80;99.90;;;;;;4967558;28;20237;-83
2020/12/14 07:10:12;;;;;;;14.83;7.33;;;4.80;99.90;;;;;;4968020;28;21330;-83
2020/12/14 07:12:47;;;;;;;15.10;7.30;;;4.80;99.90;;;;;;4966593;28;20281;-83
2020/12/14 07:15:28;;;;;;;14.90;7.57;;;4.80;99.90;;;;;;4966621;28;20229;-83
2020/12/14 07:18:09;;;;;;;22.63;7.13;;;4.70;99.90;;;;;;4968014;28;20206;-83
2020/12/14 07:20:45;;;;;;;15.17;6.60;;;4.80;99.90;;;;;;4968851;28;20210;-82
2020/12/14 07:23:14;;;;;;;16.03;7.80;;;4.80;99.90;;;;;;4966834;28;20210;-83
2020/12/14 07:25:47;;;;;;;17.77;6.80;;;4.80;99.90;;;;;;4966858;28;20297;-82
2020/12/14 07:28:15;;;;;;;13.27;6.77;;;4.80;99.90;;;;;;4970580;28;20205;-83
2020/12/14 07:30:41;;;;;;;17.90;6.87;;;4.80;99.90;;;;;;4979265;28;20214;-82
2020/12/14 07:33:08;;;;;;;15.83;6.73;;;4.80;99.90;;;;;;4989605;28;20237;-81
2020/12/14 07:35:34;;;;;;;19.60;6.87;;;4.80;99.90;;;;;;4993132;28;20218;-81
2020/12/14 07:38:00;;;;;;;14.23;6.50;;;4.90;99.90;;;;;;4991941;28;20225;-81
2020/12/14 07:40:28;;;;;;;14.00;6.50;;;4.90;99.90;;;;;;4991919;28;20756;-81
2020/12/14 07:42:55;;;;;;;12.70;6.70;;;4.90;99.90;;;;;;4988217;28;20197;-81
2020/12/14 07:45:23;;;;;;;15.60;6.27;;;4.90;99.90;;;;;;4993143;28;20288;-81
2020/12/14 07:47:51;;;;;;;16.20;6.30;;;4.90;99.90;;;;;;4990754;28;20247;-81
2020/12/14 07:50:20;;;;;;;14.87;6.50;;;5.00;99.90;;;;;;4985502;28;20229;-83
2020/12/14 07:52:49;;;;;;;17.37;7.77;;;5.00;99.90;;;;;;4973801;28;20221;-82
2020/12/14 07:55:16;;;;;;;12.93;6.70;;;5.00;99.90;;;;;;4975614;28;20255;-83
2020/12/14 07:57:46;;;;;;;14.13;6.57;;;5.00;99.90;;;;;;4975917;28;20217;-82
2020/12/14 08:00:14;;;;;;;15.93;6.53;;;5.10;99.90;;;;;;4972147;28;20233;-83
2020/12/14 08:02:43;;;;;;;16.73;6.83;;;5.10;99.90;;;;;;4973233;28;20244;-83
2020/12/14 08:05:13;;;;;;;13.87;6.33;;;5.20;99.90;;;;;;4976920;28;20280;-83
2020/12/14 08:07:44;;;;;;;13.90;6.37;;;5.20;99.90;;;;;;4971716;28;20273;-83
2020/12/14 08:10:11;;;;;;;14.53;6.00;;;5.20;99.90;;;;;;4975592;28;20264;-83
2020/12/14 08:12:39;;;;;;;14.10;7.00;;;5.30;99.90;;;;;;4971742;28;20261;-83
2020/12/14 08:15:13;;;;;;;15.20;6.53;;;5.30;99.90;;;;;;4975979;28;20280;-83
2020/12/14 08:17:40;;;;;;;16.93;5.93;;;5.30;99.90;;;;;;4974502;28;20670;-83
2020/12/14 08:20:23;;;;;;;13.27;6.60;;;5.40;99.90;;;;;;4974484;28;20825;-82
2020/12/14 08:22:49;;;;;;;12.67;6.80;;;5.40;99.90;;;;;;4975504;28;20570;-85
2020/12/14 08:25:20;;;;;;;12.93;5.97;;;5.40;99.90;;;;;;4974766;28;20222;-82
2020/12/14 08:27:51;;;;;;;14.03;6.70;;;5.40;99.90;;;;;;4973439;28;20205;-84
2020/12/14 08:30:20;;;;;;;15.00;6.90;;;5.40;99.90;;;;;;4971789;28;20229;-84
2020/12/14 08:33:06;;;;;;;14.47;6.83;;;5.40;99.90;;;;;;4968126;28;20252;-84
2020/12/14 08:35:33;;;;;;;22.47;7.40;;;5.40;99.90;;;;;;4975824;28;20233;-84
2020/12/14 08:38:02;;;;;;;20.63;7.43;;;5.40;99.90;;;;;;4971650;28;20206;-85
2020/12/14 08:40:29;;;;;;;18.43;7.57;;;5.40;99.90;;;;;;4968218;28;20707;-83
2020/12/14 08:43:08;;;;;;;18.80;8.07;;;5.40;99.90;;;;;;4965703;28;20233;-84
2020/12/14 08:45:38;;;;;;;17.60;7.13;;;5.30;99.90;;;;;;4970898;28;20268;-84
2020/12/14 08:48:05;;;;;;;14.57;6.50;;;5.40;99.90;;;;;;4967405;28;20209;-85
2020/12/14 08:50:31;;;;;;;15.60;6.53;;;5.30;99.90;;;;;;4967684;28;20233;-84
2020/12/14 08:53:02;;;;;;;15.57;6.33;;;5.30;99.90;;;;;;4973968;28;20217;-84
2020/12/14 08:55:36;;;;;;;13.37;6.13;;;5.40;99.90;;;;;;4978594;28;20280;-84
2020/12/14 08:58:03;;;;;;;13.27;6.07;;;5.40;99.90;;;;;;4980993;28;20201;-84
2020/12/14 09:00:29;;;;;;;17.60;6.33;;;5.50;99.90;;;;;;4983106;28;20228;-84
2020/12/14 09:03:00;;;;;;;12.90;5.87;;;5.50;99.90;;;;;;4979909;28;20504;-84
2020/12/14 09:05:27;;;;;;;10.43;5.77;;;5.50;99.90;;;;;;4979512;28;20356;-81
2020/12/14 09:07:53;;;;;;;11.53;5.80;;;5.50;99.90;;;;;;4982245;28;20593;-83
2020/12/14 09:10:22;;;;;;;11.97;5.67;;;5.50;99.90;;;;;;4981503;28;20244;-84
2020/12/14 09:12:50;;;;;;;13.57;6.10;;;5.60;99.90;;;;;;4978626;28;20316;-84
2020/12/14 09:15:16;;;;;;;14.93;5.60;;;5.50;99.90;;;;;;4981107;28;20237;-83
2020/12/14 09:17:45;;;;;;;17.77;6.03;;;5.60;99.90;;;;;;4979352;28;20666;-84
2020/12/14 09:20:13;;;;;;;16.03;6.53;;;5.50;99.90;;;;;;4979901;28;20272;-85
2020/12/14 09:22:40;;;;;;;16.83;6.57;;;5.50;99.90;;;;;;4980982;28;21618;-84
2020/12/14 09:25:08;;;;;;;16.73;6.20;;;5.50;99.90;;;;;;4980647;28;20252;-84
2020/12/14 09:27:34;;;;;;;17.50;6.93;;;5.50;99.90;;;;;;4981995;28;20221;-84
2020/12/14 09:30:01;;;;;;;17.63;6.30;;;5.60;99.90;;;;;;4981276;28;20224;-82
2020/12/14 09:32:27;;;;;;;18.97;6.10;;;5.60;99.90;;;;;;4980117;28;20500;-82
2020/12/14 09:37:36;;;;;;;14.13;5.80;;;5.60;99.90;;;;;;4974295;28;20210;-85
2020/12/14 09:40:03;;;;;;;10.03;5.97;;;5.60;99.90;;;;;;4975566;28;20221;-84
2020/12/14 09:42:29;;;;;;;14.10;5.73;;;5.60;99.90;;;;;;4969787;28;20213;-85
2020/12/14 09:48:06;;;;;;;21.00;6.83;;;5.60;99.90;;;;;;4959791;28;20329;-84
2020/12/14 09:50:34;;;;;;;15.53;6.37;;;5.60;99.90;;;;;;4970067;28;20209;-85
2020/12/14 09:53:40;;;;;;;18.97;6.53;;;5.70;99.90;;;;;;4970413;28;20287;-85
2020/12/14 09:56:07;;;;;;;14.40;5.43;;;5.70;99.90;;;;;;4968182;28;20233;-85
2020/12/14 09:58:38;;;;;;;11.73;6.73;;;5.70;99.90;;;;;;4972737;28;20581;-86
2020/12/14 10:01:07;;;;;;;13.40;6.00;;;5.70;99.90;;;;;;4972724;28;20225;-85
2020/12/14 10:03:39;;;;;;;14.80;6.47;;;5.80;99.90;;;;;;4970869;28;20218;-85
2020/12/14 10:06:39;;;;;;;14.33;6.10;;;5.90;99.90;;;;;;4984457;28;20257;-86
2020/12/14 10:09:07;;;;;;;20.20;6.33;;;6.00;99.90;;;;;;4976123;28;20607;-86
2020/12/14 10:11:36;;;;;;;17.60;7.00;;;6.10;99.90;;;;;;4972291;28;20249;-86
2020/12/14 10:14:03;;;;;;;16.87;6.30;;;6.20;99.90;;;;;;4973533;28;20241;-85
2020/12/14 10:16:29;;;;;;;16.13;5.90;;;6.30;99.90;;;;;;4972576;28;20577;-86
2020/12/14 10:18:56;;;;;;;15.87;6.20;;;6.30;99.90;;;;;;4970636;28;20198;-85
2020/12/14 10:21:22;;;;;;;12.00;6.00;;;6.40;99.90;;;;;;4969036;28;20226;-86
2020/12/14 10:23:49;;;;;;;15.50;5.83;;;6.50;99.90;;;;;;4970180;28;20213;-87
2020/12/14 10:26:17;;;;;;;14.43;5.53;;;6.50;99.90;;;;;;4974281;28;20226;-86
2020/12/14 10:28:44;;;;;;;17.50;6.10;;;6.60;99.90;;;;;;4972991;28;20218;-85
2020/12/14 10:31:11;;;;;;;14.33;5.43;;;6.50;99.90;;;;;;4973816;28;20221;-85
2020/12/14 10:33:37;;;;;;;12.73;6.13;;;6.60;99.90;;;;;;4972281;28;20229;-86
2020/12/14 10:36:08;;;;;;;10.67;5.27;;;6.60;99.90;;;;;;4973925;28;20222;-85
2020/12/14 10:38:35;;;;;;;10.37;5.03;;;6.50;99.90;;;;;;4970766;28;20276;-85
2020/12/14 10:41:02;;;;;;;12.00;5.93;;;6.50;99.90;;;;;;4971580;28;20627;-87
2020/12/14 10:43:29;;;;;;;14.37;5.37;;;6.50;99.90;;;;;;4971468;28;20566;-86
2020/12/14 10:45:57;;;;;;;9.80;5.37;;;6.50;99.90;;;;;;4973099;28;20241;-84
2020/12/14 10:48:24;;;;;;;12.80;5.67;;;6.50;99.90;;;;;;4975201;28;20209;-85
2020/12/14 10:50:50;;;;;;;14.97;6.33;;;6.60;99.90;;;;;;4973820;28;20213;-86
2020/12/14 10:53:17;;;;;;;15.00;5.53;;;6.60;99.90;;;;;;4976961;28;20234;-85
2020/12/14 10:55:43;;;;;;;18.87;5.90;;;6.70;99.90;;;;;;4976260;28;20229;-85
2020/12/14 10:58:10;;;;;;;16.07;6.37;;;6.70;99.90;;;;;;4974323;28;20218;-85
2020/12/14 11:00:36;;;;;;;13.30;5.90;;;6.80;99.90;;;;;;4977208;28;20218;-85
2020/12/14 11:03:04;;;;;;;11.67;4.80;;;6.90;99.90;;;;;;4973835;28;20643;-86
2020/12/14 11:05:31;;;;;;;13.83;5.57;;;6.90;99.90;;;;;;4976578;28;20717;-84
2020/12/14 11:07:57;;;;;;;12.53;5.47;;;7.10;99.90;;;;;;4976952;28;20205;-85
2020/12/14 11:10:24;;;;;;;11.90;5.47;;;7.20;99.90;;;;;;4976620;28;20218;-85
2020/12/14 11:12:51;;;;;;;11.80;5.53;;;7.20;99.90;;;;;;4972400;28;20284;-86
2020/12/14 11:15:17;;;;;;;15.57;5.60;;;7.30;99.90;;;;;;4975146;28;20256;-85
2020/12/14 11:17:44;;;;;;;13.43;5.13;;;7.50;99.90;;;;;;4973430;28;20206;-86
2020/12/14 11:20:12;;;;;;;12.57;5.57;;;7.60;99.90;;;;;;4973607;28;20221;-86
2020/12/14 11:22:39;;;;;;;12.33;4.10;;;7.80;99.90;;;;;;4976612;28;20214;-87
2020/12/14 11:25:06;;;;;;;7.70;4.20;;;7.90;99.90;;;;;;4975300;28;20237;-85
2020/12/14 11:27:33;;;;;;;9.90;4.93;;;8.10;99.90;;;;;;4974484;28;20297;-84
2020/12/14 11:29:59;;;;;;;7.00;4.07;;;8.20;99.90;;;;;;4974065;28;20221;-85
2020/12/14 11:32:27;;;;;;;10.33;4.10;;;8.30;99.90;;;;;;4973124;28;20230;-85
2020/12/14 11:34:54;;;;;;;9.10;4.83;;;8.30;99.90;;;;;;4974996;28;20234;-84
2020/12/14 11:37:21;;;;;;;13.60;4.60;;;8.30;99.90;;;;;;4974188;28;20706;-84
2020/12/14 11:39:47;;;;;;;7.33;3.60;;;8.30;99.90;;;;;;4973993;28;20228;-84
2020/12/14 11:42:14;;;;;;;8.83;4.00;;;8.40;99.90;;;;;;4971868;28;20222;-84
2020/12/14 11:44:41;;;;;;;7.33;3.97;;;8.30;99.90;;;;;;4975818;28;20241;-83
2020/12/14 11:47:07;;;;;;;10.10;3.87;;;8.30;99.90;;;;;;4973534;28;20222;-84
2020/12/14 11:49:34;;;;;;;9.40;4.13;;;8.30;99.90;;;;;;4974202;28;20285;-84
2020/12/14 11:52:01;;;;;;;10.03;4.00;;;8.30;99.90;;;;;;4969996;28;20230;-84
2020/12/14 11:54:29;;;;;;;9.43;3.90;;;8.30;99.90;;;;;;4976206;28;20320;-83
2020/12/14 11:56:55;;;;;;;6.77;3.70;;;8.20;99.90;;;;;;4975413;28;20220;-84
2020/12/14 11:59:23;;;;;;;11.13;3.87;;;8.20;99.90;;;;;;4976822;28;20214;-84
2020/12/14 12:01:52;;;;;;;9.00;4.33;;;8.20;99.90;;;;;;4974168;28;20225;-84
2020/12/14 12:04:19;;;;;;;8.17;3.50;;;8.20;99.90;;;;;;4971250;28;20244;-83
2020/12/14 12:06:45;;;;;;;5.43;3.00;;;8.30;99.90;;;;;;4970197;28;20213;-84
2020/12/14 12:09:12;;;;;;;8.20;3.50;;;8.20;99.90;;;;;;4967046;28;20218;-84
2020/12/14 12:11:39;;;;;;;8.27;3.07;;;8.20;99.90;;;;;;4969923;28;20913;-84
2020/12/14 12:14:06;;;;;;;6.63;3.60;;;8.20;99.90;;;;;;4974102;28;20238;-84
2020/12/14 12:16:32;;;;;;;5.47;3.00;;;8.30;99.90;;;;;;4971059;28;20209;-83
2020/12/14 12:18:59;;;;;;;6.57;3.20;;;8.30;99.90;;;;;;4965938;28;20610;-84
2020/12/14 12:21:25;;;;;;;10.50;3.20;;;8.20;99.90;;;;;;4971402;28;20690;-83
2020/12/14 12:23:52;;;;;;;8.77;2.97;;;8.30;99.90;;;;;;4969686;28;20213;-84
2020/12/14 12:26:18;;;;;;;7.90;3.17;;;8.30;99.90;;;;;;4973887;28;20217;-85
2020/12/14 12:28:46;;;;;;;6.00;3.40;;;8.40;99.90;;;;;;4971055;28;20225;-84
2020/12/14 12:31:12;;;;;;;5.90;2.60;;;8.40;99.90;;;;;;4973380;28;20201;-83
2020/12/14 12:33:40;;;;;;;7.20;3.53;;;8.40;99.90;;;;;;4972797;28;20229;-83
2020/12/14 12:36:08;;;;;;;7.43;3.27;;;8.50;99.90;;;;;;4971225;28;20730;-84
2020/12/14 12:38:35;;;;;;;6.37;3.60;;;8.40;99.90;;;;;;4973857;28;20217;-83
2020/12/14 12:41:02;;;;;;;9.93;4.10;;;8.50;99.90;;;;;;4971864;28;20225;-84
2020/12/14 12:43:28;;;;;;;14.20;5.83;;;8.60;99.90;;;;;;4975911;28;20218;-83
2020/12/14 12:45:56;;;;;;;6.50;3.23;;;8.60;99.90;;;;;;4975841;28;20253;-84
2020/12/14 12:48:22;;;;;;;8.80;2.93;;;8.50;99.90;;;;;;4970738;28;20209;-84
2020/12/14 12:50:55;;;;;;;7.37;3.07;;;8.50;99.90;;;;;;4973876;28;20209;-86
2020/12/14 12:53:22;;;;;;;5.97;3.60;;;8.50;99.90;;;;;;4969920;28;20257;-85
2020/12/14 12:55:49;;;;;;;6.80;3.40;;;8.60;99.90;;;;;;4970209;28;20806;-85
2020/12/14 12:58:16;;;;;;;10.40;4.60;;;8.70;99.90;;;;;;4973338;28;20596;-85
2020/12/14 13:00:42;;;;;;;6.77;2.80;;;8.60;99.90;;;;;;4970448;28;20218;-85
2020/12/14 13:03:10;;;;;;;5.20;3.00;;;8.60;99.90;;;;;;4970196;28;20206;-85
2020/12/14 13:05:38;;;;;;;5.83;2.93;;;8.60;99.90;;;;;;4969739;28;20234;-84
2020/12/14 13:08:05;;;;;;;8.80;3.10;;;8.60;99.90;;;;;;4971595;28;20261;-85
2020/12/14 13:10:31;;;;;;;4.23;2.43;;;8.50;99.90;;;;;;4968332;28;20217;-85
2020/12/14 13:12:58;;;;;;;6.30;4.00;;;8.50;99.90;;;;;;4966268;28;20257;-85
2020/12/14 13:15:24;;;;;;;6.93;2.87;;;8.50;99.90;;;;;;4971672;28;20234;-84
2020/12/14 13:17:51;;;;;;;8.30;3.17;;;8.50;99.90;;;;;;4967174;28;20711;-84
2020/12/14 13:20:18;;;;;;;9.67;3.57;;;8.50;99.90;;;;;;4969639;28;20588;-84
2020/12/14 13:22:45;;;;;;;6.20;2.67;;;8.60;99.90;;;;;;4963538;28;20198;-85
2020/12/14 13:25:11;;;;;;;7.87;3.20;;;8.50;99.90;;;;;;4970999;28;20702;-83
2020/12/14 13:27:38;;;;;;;13.10;4.03;;;8.40;99.90;;;;;;4972364;28;20229;-84
2020/12/14 13:30:05;;;;;;;5.30;3.43;;;8.40;99.90;;;;;;4972678;28;20296;-84
2020/12/14 13:32:33;;;;;;;6.50;3.30;;;8.40;99.90;;;;;;4968361;28;20285;-84
2020/12/14 13:35:08;;;;;;;8.07;3.23;;;8.50;99.90;;;;;;4972610;28;20241;-83
2020/12/14 13:37:35;;;;;;;6.70;3.60;;;8.50;99.90;;;;;;4969959;28;20217;-85
2020/12/14 13:40:03;;;;;;;7.10;4.17;;;8.60;99.90;;;;;;4972576;28;20643;-86
2020/12/14 13:42:30;;;;;;;6.50;3.20;;;8.60;99.90;;;;;;4973586;28;20281;-85
2020/12/14 13:44:56;;;;;;;6.53;3.13;;;8.70;99.90;;;;;;4975708;28;20225;-83
2020/12/14 13:47:23;;;;;;;10.80;2.63;;;8.60;99.90;;;;;;4972155;28;20209;-84
2020/12/14 13:49:51;;;;;;;6.90;2.80;;;8.70;99.90;;;;;;4975448;28;20213;-86
2020/12/14 13:52:18;;;;;;;5.97;3.13;;;8.60;99.90;;;;;;4973524;28;20233;-84
2020/12/14 13:54:46;;;;;;;7.43;3.10;;;8.60;99.90;;;;;;4972942;28;20225;-84
2020/12/14 13:57:12;;;;;;;11.47;3.60;;;8.60;99.90;;;;;;4972804;28;20218;-85
2020/12/14 13:59:42;;;;;;;6.30;2.50;;;8.50;99.90;;;;;;4965282;28;20248;-85
2020/12/14 14:02:09;;;;;;;9.43;2.73;;;8.50;99.90;;;;;;4971896;28;20209;-84
2020/12/14 14:04:36;;;;;;;11.73;4.33;;;8.50;99.90;;;;;;4975910;28;20233;-85
2020/12/14 14:07:03;;;;;;;8.23;3.30;;;8.50;99.90;;;;;;4973829;28;20217;-85
2020/12/14 14:09:30;;;;;;;10.27;4.60;;;8.50;99.90;;;;;;4974842;28;20202;-85
2020/12/14 14:11:58;;;;;;;8.43;3.50;;;8.40;99.90;;;;;;4974611;28;20218;-86
2020/12/14 14:14:25;;;;;;;11.13;4.70;;;8.40;99.90;;;;;;4975521;28;20225;-85
2020/12/14 14:16:52;;;;;;;6.93;3.83;;;8.40;99.90;;;;;;4970003;28;20220;-85
2020/12/14 14:19:19;;;;;;;9.73;3.97;;;8.40;99.90;;;;;;4969418;28;20249;-85
2020/12/14 14:21:46;;;;;;;8.57;4.30;;;8.40;99.90;;;;;;4970251;28;20265;-84
2020/12/14 14:24:12;;;;;;;11.07;3.90;;;8.40;99.90;;;;;;4968250;28;20237;-85
2020/12/14 14:26:39;;;;;;;8.33;4.00;;;8.40;99.90;;;;;;4970754;28;20674;-86
2020/12/14 14:29:06;;;;;;;8.27;4.20;;;8.40;99.90;;;;;;4969403;28;20401;-85
2020/12/14 14:31:33;;;;;;;8.17;3.40;;;8.40;99.90;;;;;;4971032;28;20590;-85
2020/12/14 14:33:59;;;;;;;8.87;3.90;;;8.30;99.90;;;;;;4969245;28;20657;-83
2020/12/14 14:36:26;;;;;;;12.27;4.50;;;8.30;99.90;;;;;;4970129;28;20203;-85
2020/12/14 14:38:57;;;;;;;18.13;4.37;;;8.30;99.90;;;;;;4969324;28;20212;-85
2020/12/14 14:41:24;;;;;;;7.77;3.87;;;8.20;99.90;;;;;;4973230;28;20264;-84
2020/12/14 14:43:50;;;;;;;11.63;3.70;;;8.20;99.90;;;;;;4978478;28;20552;-85
2020/12/14 14:46:21;;;;;;;8.37;4.03;;;8.10;99.90;;;;;;4977896;28;20240;-84
2020/12/14 14:48:53;;;;;;;12.73;4.20;;;8.10;99.90;;;;;;4976348;28;20229;-86
2020/12/14 14:51:19;;;;;;;10.87;4.27;;;8.10;99.90;;;;;;4976171;28;20213;-84
2020/12/14 14:53:46;;;;;;;13.53;4.17;;;8.00;99.90;;;;;;4976964;28;20225;-85
2020/12/14 14:56:13;;;;;;;8.63;4.13;;;7.90;99.90;;;;;;4975804;28;20628;-85
2020/12/14 14:58:39;;;;;;;12.23;4.73;;;7.90;99.90;;;;;;4978307;28;20213;-86
2020/12/14 15:01:09;;;;;;;14.10;4.10;;;7.90;99.90;;;;;;4974630;28;20232;-85
2020/12/14 15:03:39;;;;;;;12.53;4.50;;;7.90;99.90;;;;;;4975711;28;20202;-86
2020/12/14 15:06:06;;;;;;;7.30;4.37;;;7.90;99.90;;;;;;4974866;28;20225;-83
2020/12/14 15:08:35;;;;;;;10.47;4.30;;;7.90;99.90;;;;;;4974227;28;20217;-86
2020/12/14 15:11:05;;;;;;;8.17;3.93;;;7.90;99.90;;;;;;4978025;28;20214;-85
2020/12/14 15:13:32;;;;;;;19.70;4.47;;;7.80;99.90;;;;;;4975835;28;20233;-85
2020/12/14 15:16:03;;;;;;;10.20;4.40;;;7.80;99.90;;;;;;4975106;28;20230;-85
2020/12/14 15:18:29;;;;;;;8.10;3.60;;;7.70;99.90;;;;;;4973810;28;20217;-84
2020/12/14 15:21:00;;;;;;;8.90;3.97;;;7.60;99.90;;;;;;4973316;28;20261;-85
2020/12/14 15:23:29;;;;;;;10.43;4.10;;;7.60;99.90;;;;;;4976360;28;20265;-85
2020/12/14 15:25:56;;;;;;;9.57;5.03;;;7.50;99.90;;;;;;4974034;28;20234;-85
2020/12/14 15:28:22;;;;;;;9.17;4.40;;;7.40;99.90;;;;;;4971848;28;20238;-84
2020/12/14 15:30:49;;;;;;;9.43;4.20;;;7.30;99.90;;;;;;4970963;28;20210;-85
2020/12/14 15:33:15;;;;;;;9.97;6.07;;;7.30;99.90;;;;;;4975314;28;20232;-85
2020/12/14 15:35:42;;;;;;;13.00;3.90;;;7.20;99.90;;;;;;4978280;28;20599;-85
2020/12/14 15:38:10;;;;;;;8.73;4.73;;;7.20;99.90;;;;;;4976612;28;20217;-83
2020/12/14 15:40:36;;;;;;;9.87;4.10;;;7.10;99.90;;;;;;4977640;28;20602;-85
2020/12/14 15:43:03;;;;;;;10.70;4.47;;;7.10;99.90;;;;;;4975166;28;20678;-85
2020/12/14 15:45:31;;;;;;;10.33;4.27;;;7.00;99.90;;;;;;4977491;28;20229;-83
2020/12/14 15:47:58;;;;;;;11.77;4.53;;;7.00;99.90;;;;;;4972646;28;20218;-85
2020/12/14 15:50:25;;;;;;;10.63;4.37;;;6.90;99.90;;;;;;4976335;28;20237;-85
2020/12/14 15:52:51;;;;;;;7.17;4.10;;;6.90;99.90;;;;;;4974629;28;20598;-83
2020/12/14 15:55:19;;;;;;;8.17;3.87;;;6.80;99.90;;;;;;4977777;28;20731;-84
2020/12/14 15:57:45;;;;;;;9.57;3.97;;;6.70;99.90;;;;;;4969773;28;20620;-84
2020/12/14 16:00:12;;;;;;;10.77;4.17;;;6.70;99.90;;;;;;4972338;28;20214;-83
2020/12/14 16:02:39;;;;;;;8.63;4.53;;;6.60;99.90;;;;;;4971880;28;20213;-83
2020/12/14 16:05:07;;;;;;;8.93;4.60;;;6.60;99.90;;;;;;4974545;28;20256;-83
2020/12/14 16:07:33;;;;;;;12.03;5.03;;;6.60;99.90;;;;;;4972855;28;20304;-83
2020/12/14 16:10:00;;;;;;;9.10;4.10;;;6.50;99.90;;;;;;4974252;28;20209;-84
2020/12/14 16:12:27;;;;;;;7.53;3.73;;;6.50;99.90;;;;;;4971079;28;20276;-84
2020/12/14 16:14:54;;;;;;;12.43;4.30;;;6.50;99.90;;;;;;4974044;28;20225;-84
2020/12/14 16:17:21;;;;;;;8.60;4.33;;;6.50;99.90;;;;;;4971545;28;20240;-83
2020/12/14 16:19:47;;;;;;;11.53;4.20;;;6.40;99.90;;;;;;4976511;28;20240;-84
2020/12/14 16:22:14;;;;;;;7.57;3.90;;;6.40;99.90;;;;;;4976154;28;20224;-84
2020/12/14 16:24:40;;;;;;;7.90;4.10;;;6.30;99.90;;;;;;4975403;28;20233;-84
2020/12/14 16:27:09;;;;;;;9.87;4.40;;;6.20;99.90;;;;;;4974223;28;20268;-85
2020/12/14 16:29:37;;;;;;;9.70;4.27;;;6.20;99.90;;;;;;4973260;28;20208;-84
2020/12/14 16:32:04;;;;;;;9.20;4.93;;;6.20;99.90;;;;;;4968803;28;20241;-84
2020/12/14 16:37:40;;;;;;;8.67;4.03;;;6.10;99.90;;;;;;4941367;28;20231;-84
2020/12/14 16:40:08;;;;;;;12.57;4.70;;;6.10;99.90;;;;;;4968437;28;20583;-84
2020/12/14 17:02:57;;;;;;;8.50;4.13;;;6.10;99.90;;;;;;4981196;28;20208;-86
2020/12/14 17:05:24;;;;;;;10.43;4.67;;;6.00;99.90;;;;;;4976639;28;20232;-84
2020/12/14 17:08:01;;;;;;;10.73;5.37;;;5.90;99.90;;;;;;4974822;28;20205;-86
2020/12/14 17:10:40;;;;;;;8.70;4.60;;;5.70;99.90;;;;;;4968403;28;20208;-86
2020/12/14 17:13:43;;;;;;;9.13;5.03;;;5.50;99.90;;;;;;4966540;28;20225;-87
2020/12/14 17:16:45;;;;;;;12.90;4.60;;;5.50;99.90;;;;;;4968011;28;20239;-84
2020/12/14 17:19:49;;;;;;;14.23;5.17;;;5.30;99.90;;;;;;4972768;28;20209;-85
2020/12/14 17:22:19;;;;;;;11.30;5.10;;;5.10;99.90;;;;;;4972081;28;20216;-86
2020/12/14 17:51:47;;;;;;;22.33;10.03;;;4.00;99.90;;;;;;4832460;29;20226;-86
2020/12/14 17:54:14;;;;;;;16.53;8.30;;;4.00;99.90;;;;;;4877489;28;20309;-86
2020/12/14 17:56:41;;;;;;;16.60;7.83;;;4.10;99.90;;;;;;4952271;28;20237;-87
2020/12/14 17:59:07;;;;;;;17.23;7.80;;;4.10;99.90;;;;;;4968590;28;20205;-84
2020/12/14 18:01:34;;;;;;;17.40;7.00;;;4.10;99.90;;;;;;4972542;28;20394;-87
2020/12/14 18:04:01;;;;;;;18.30;8.13;;;4.20;99.90;;;;;;4972054;28;20226;-87
2020/12/14 18:06:31;;;;;;;15.80;7.30;;;4.20;99.90;;;;;;4967285;28;20228;-88
2020/12/14 18:08:58;;;;;;;19.30;9.03;;;4.10;99.90;;;;;;4968426;28;20900;-86
2020/12/14 18:11:24;;;;;;;16.13;7.70;;;4.00;99.90;;;;;;4966245;28;20284;-87
2020/12/14 18:13:51;;;;;;;21.40;9.00;;;3.90;99.90;;;;;;4970265;28;20249;-85
2020/12/14 18:16:18;;;;;;;19.07;9.50;;;3.80;99.90;;;;;;4970154;28;20210;-85
2020/12/14 18:18:46;;;;;;;21.33;8.87;;;3.70;99.90;;;;;;4972187;28;20228;-85
2020/12/14 18:21:13;;;;;;;20.33;9.23;;;3.60;99.90;;;;;;4970655;28;20277;-87
2020/12/14 18:23:41;;;;;;;16.83;8.17;;;3.50;99.90;;;;;;4964255;28;20216;-86
2020/12/14 18:26:10;;;;;;;19.67;9.07;;;3.50;99.90;;;;;;4971889;28;20225;-88
2020/12/14 18:28:38;;;;;;;16.00;8.03;;;3.50;99.90;;;;;;4976276;28;20263;-87
2020/12/14 18:31:05;;;;;;;16.37;8.30;;;3.50;99.90;;;;;;4978303;28;20721;-87
2020/12/14 21:24:08;;;;;;;18.17;10.40;;;4.10;99.90;;;;;;4970146;28;20203;-86
2020/12/14 21:26:35;;;;;;;19.40;9.40;;;4.20;99.90;;;;;;4969421;28;20206;-87
2020/12/14 21:29:02;;;;;;;20.00;9.57;;;4.10;99.90;;;;;;4971046;28;20209;-86
2020/12/14 21:31:29;;;;;;;14.80;9.10;;;4.10;99.90;;;;;;4976700;28;20216;-85
2020/12/14 21:33:56;;;;;;;19.43;10.80;;;4.10;99.90;;;;;;4970227;28;20834;-85
2020/12/14 21:36:23;;;;;;;19.27;10.90;;;4.10;99.90;;;;;;4977516;28;20232;-85
2020/12/14 21:38:49;;;;;;;22.70;11.00;;;4.20;99.90;;;;;;4973935;28;20205;-87
2020/12/14 21:41:23;;;;;;;18.40;10.23;;;4.20;99.90;;;;;;4970955;28;20235;-84
2020/12/14 21:43:50;;;;;;;23.00;11.27;;;4.30;99.90;;;;;;4969437;28;20202;-85
2020/12/14 21:46:16;;;;;;;19.20;10.17;;;4.30;99.90;;;;;;4970614;28;20206;-86
2020/12/14 21:48:46;;;;;;;17.50;10.13;;;4.50;99.90;;;;;;4970348;28;20260;-85
2020/12/14 21:51:13;;;;;;;17.60;9.13;;;4.60;99.90;;;;;;4965468;28;20555;-86
2020/12/14 21:53:39;;;;;;;20.03;10.00;;;4.60;99.90;;;;;;4969018;28;20285;-85
2020/12/14 21:56:06;;;;;;;21.40;10.00;;;4.60;99.90;;;;;;4973398;28;20233;-84
2020/12/14 21:58:32;;;;;;;20.07;10.27;;;4.70;99.90;;;;;;4976566;28;20209;-87
2020/12/14 22:00:59;;;;;;;18.67;9.90;;;4.70;99.90;;;;;;4973657;28;20214;-87
2020/12/14 22:03:26;;;;;;;18.47;11.93;;;4.70;99.90;;;;;;4976694;28;20612;-86
2020/12/14 22:05:53;;;;;;;16.50;9.60;;;4.80;99.90;;;;;;4977676;28;20245;-85
2020/12/14 22:08:19;;;;;;;18.20;9.20;;;4.80;99.90;;;;;;4976599;28;20209;-86
2020/12/14 22:10:46;;;;;;;16.47;9.17;;;4.70;99.90;;;;;;4975624;28;20218;-85
2020/12/14 22:13:12;;;;;;;19.23;9.97;;;4.70;99.90;;;;;;4976367;28;20233;-85
2020/12/14 22:15:39;;;;;;;18.07;10.50;;;4.70;99.90;;;;;;4976071;28;20246;-85
2020/12/14 22:18:06;;;;;;;20.97;10.83;;;4.70;99.90;;;;;;4973984;28;20232;-86
2020/12/14 22:20:33;;;;;;;19.97;11.23;;;4.80;99.90;;;;;;4979994;28;20241;-86
2020/12/14 22:23:01;;;;;;;22.00;10.83;;;4.80;99.90;;;;;;4979317;28;20201;-87
2020/12/14 22:25:27;;;;;;;19.87;10.60;;;4.80;99.90;;;;;;4983207;28;20275;-86
2020/12/14 22:27:54;;;;;;;16.50;10.20;;;4.70;99.90;;;;;;4976525;28;20209;-85
2020/12/14 22:30:20;;;;;;;23.10;10.97;;;4.70;99.90;;;;;;4976286;28;20206;-86
2020/12/14 22:32:47;;;;;;;21.37;11.33;;;4.70;99.90;;;;;;4972415;28;20611;-85
2020/12/14 22:35:14;;;;;;;21.50;12.40;;;4.60;99.90;;;;;;4970852;28;20225;-87
2020/12/14 22:37:41;;;;;;;24.23;11.30;;;4.60;99.90;;;;;;4976165;28;20205;-86
2020/12/14 22:40:08;;;;;;;21.23;11.70;;;4.60;99.90;;;;;;4981392;28;20220;-86
2020/12/14 22:42:35;;;;;;;21.70;11.40;;;4.50;99.90;;;;;;4981525;28;20214;-87
2020/12/14 22:45:01;;;;;;;21.07;10.77;;;4.50;99.90;;;;;;4979993;28;20236;-86
2020/12/14 22:47:28;;;;;;;23.17;12.23;;;4.40;99.90;;;;;;4971590;28;20696;-86
2020/12/14 22:49:54;;;;;;;22.70;10.73;;;4.40;99.90;;;;;;4970444;28;20217;-86
2020/12/14 22:52:21;;;;;;;20.67;10.37;;;4.50;99.90;;;;;;4970331;28;20260;-85
2020/12/14 22:54:48;;;;;;;22.40;11.63;;;4.50;99.90;;;;;;4973687;28;20280;-85
2020/12/14 22:57:15;;;;;;;26.93;10.97;;;4.50;99.90;;;;;;4974140;28;20225;-86